Time;durP1;ratioP1;P1;durP2;ratioP2;P2;SDS_P1;SDS_P2;PMS_P1;PMS_P2;Temp;Humidity;BMP_temperature;BMP_pressure;BME280_temperature;BME280_humidity;BME280_pressure;Samples;Min_cycle;Max_cycle;Signal;HPM_P1;HPM_P2
2023/10/22 00:01:23;;;;;;;9.30;2.90;;;;;;;12.70;80.48;96707.85;110417;1241;70738;-69
2023/10/22 00:03:54;;;;;;;7.50;3.60;;;;;;;12.68;83.42;96704.73;110275;1241;69330;-69
2023/10/22 00:06:25;;;;;;;9.70;3.80;;;;;;;12.66;80.36;96697.89;110241;1241;68493;-70
2023/10/22 00:08:57;;;;;;;11.70;4.60;;;;;;;12.66;80.19;96700.39;110247;1241;59748;-70
2023/10/22 00:11:28;;;;;;;10.40;3.60;;;;;;;12.65;85.66;96707.65;110267;1240;59733;-70
2023/10/22 00:13:59;;;;;;;8.50;4.20;;;;;;;12.61;86.05;96702.45;110242;1242;71209;-68
2023/10/22 00:16:29;;;;;;;;;;;;;;;12.54;88.67;96701.85;110318;1239;69235;-69
2023/10/22 00:19:00;;;;;;;5.60;3.50;;;;;;;12.46;86.78;96705.02;110233;1241;68542;-69
2023/10/22 00:21:34;;;;;;;8.10;3.60;;;;;;;12.40;83.52;96708.55;110308;1241;59666;-69
2023/10/22 00:24:07;;;;;;;6.80;3.10;;;;;;;12.36;81.08;96707.12;110276;1241;59672;-69
2023/10/22 00:26:41;;;;;;;6.10;2.70;;;;;;;12.36;81.72;96703.64;110187;1239;70658;-69
2023/10/22 00:29:13;;;;;;;7.50;3.10;;;;;;;12.36;80.34;96699.48;110264;1239;69091;-69
2023/10/22 00:31:49;;;;;;;9.10;3.00;;;;;;;12.37;86.78;96698.70;110238;1241;68120;-69
2023/10/22 00:34:23;;;;;;;7.30;3.60;;;;;;;12.35;82.94;96696.45;110283;1241;59678;-69
2023/10/22 00:36:56;;;;;;;7.10;3.80;;;;;;;12.34;83.07;96698.42;110281;1241;59666;-68
2023/10/22 00:39:29;;;;;;;8.10;3.00;;;;;;;12.35;84.29;96704.98;110282;1239;71311;-69
2023/10/22 00:42:01;;;;;;;7.50;3.70;;;;;;;12.33;85.22;96713.25;110177;1244;67918;-69
2023/10/22 00:44:35;;;;;;;13.20;4.10;;;;;;;12.23;84.37;96713.36;110266;1240;68958;-69
2023/10/22 00:47:14;;;;;;;6.20;3.40;;;;;;;12.11;86.17;96719.77;110254;1241;59812;-69
2023/10/22 00:49:45;;;;;;;7.50;4.00;;;;;;;12.07;88.26;96725.80;110384;1240;59731;-69
2023/10/22 00:52:17;;;;;;;6.80;3.60;;;;;;;12.03;85.92;96721.19;110146;1244;71425;-69
2023/10/22 00:54:52;;;;;;;8.20;3.60;;;;;;;12.00;89.35;96719.28;110303;1241;69204;-70
2023/10/22 00:57:29;;;;;;;8.30;3.80;;;;;;;11.93;84.66;96719.79;110210;1243;69324;-69
2023/10/22 01:00:04;;;;;;;9.10;4.60;;;;;;;11.80;86.52;96720.70;110292;1241;59732;-69
2023/10/22 01:02:35;;;;;;;8.50;4.20;;;;;;;11.76;90.99;96719.52;110196;1241;59694;-69
2023/10/22 01:05:12;;;;;;;8.30;4.40;;;;;;;11.71;88.94;96715.55;110307;1241;70695;-69
2023/10/22 01:07:45;;;;;;;9.70;4.10;;;;;;;11.67;93.90;96719.70;110346;1241;69093;-69
2023/10/22 01:10:18;;;;;;;11.10;4.80;;;;;;;11.65;94.25;96723.07;110349;1239;68562;-69
2023/10/22 01:12:53;;;;;;;7.70;4.00;;;;;;;11.63;92.64;96723.75;110208;1242;59695;-69
2023/10/22 01:15:27;;;;;;;6.80;3.60;;;;;;;11.65;92.23;96723.59;110278;1242;59650;-69
2023/10/22 01:18:05;;;;;;;10.30;4.40;;;;;;;11.66;93.51;96727.19;110276;1241;71654;-68
2023/10/22 01:20:40;;;;;;;14.50;5.10;;;;;;;11.67;93.56;96737.21;110275;1242;69292;-68
2023/10/22 01:23:19;;;;;;;9.70;3.70;;;;;;;11.69;91.17;96735.13;110240;1241;69189;-68
2023/10/22 01:25:57;;;;;;;10.30;4.50;;;;;;;11.74;89.98;96735.41;110254;1240;59693;-67
2023/10/22 01:28:38;;;;;;;10.40;4.20;;;;;;;11.82;92.24;96734.86;110280;1244;59743;-69
2023/10/22 01:31:19;;;;;;;9.40;4.10;;;;;;;11.90;90.77;96733.80;110260;1245;71414;-69
2023/10/22 01:33:58;;;;;;;9.00;3.80;;;;;;;11.95;88.39;96732.35;110357;1241;69124;-69
2023/10/22 01:36:41;;;;;;;6.50;3.50;;;;;;;11.96;88.30;96734.83;110263;1241;69123;-67
2023/10/22 01:39:27;;;;;;;10.20;4.40;;;;;;;11.95;87.49;96728.96;110265;1241;59729;-69
2023/10/22 01:42:00;;;;;;;8.10;3.40;;;;;;;12.03;88.06;96727.73;110266;1240;59727;-68
2023/10/22 01:44:32;;;;;;;10.30;4.10;;;;;;;12.09;89.58;96724.84;110251;1241;70411;-70
2023/10/22 01:47:12;;;;;;;7.20;3.90;;;;;;;12.00;94.95;96722.95;110255;1241;68643;-69
2023/10/22 01:49:48;;;;;;;9.40;4.90;;;;;;;11.94;95.38;96718.61;110263;1241;69123;-70
2023/10/22 01:52:22;;;;;;;11.20;4.50;;;;;;;11.92;95.50;96720.70;110272;1241;59625;-69
2023/10/22 01:54:55;;;;;;;10.20;4.50;;;;;;;11.92;94.28;96719.86;110227;1240;59692;-69
2023/10/22 01:57:25;;;;;;;14.90;5.30;;;;;;;11.97;94.45;96719.17;110430;1239;71804;-69
2023/10/22 01:59:57;;;;;;;8.70;4.50;;;;;;;12.07;93.24;96714.16;110235;1239;68343;-68
2023/10/22 02:02:34;;;;;;;8.20;3.60;;;;;;;12.21;91.90;96707.60;110158;1240;68486;-70
2023/10/22 02:05:07;;;;;;;10.80;4.20;;;;;;;12.35;90.56;96701.99;110240;1241;59680;-69
2023/10/22 02:07:39;;;;;;;7.40;3.50;;;;;;;12.49;90.18;96693.73;110210;1241;59684;-70
2023/10/22 02:10:12;;;;;;;7.60;3.50;;;;;;;12.64;90.62;96684.48;110245;1241;71334;-69
2023/10/22 02:12:44;;;;;;;8.80;3.90;;;;;;;12.78;89.89;96683.52;110229;1241;68606;-69
2023/10/22 02:15:15;;;;;;;7.30;3.20;;;;;;;12.90;89.00;96681.91;110153;1244;68617;-69
2023/10/22 02:17:46;;;;;;;8.40;3.70;;;;;;;13.00;87.01;96684.44;110325;1241;59695;-70
2023/10/22 02:20:17;;;;;;;8.50;3.30;;;;;;;13.14;86.10;96684.65;110323;1241;59761;-70
2023/10/22 02:22:51;;;;;;;8.20;3.30;;;;;;;13.29;85.45;96686.29;110346;1241;71266;-68
2023/10/22 02:25:23;;;;;;;8.50;3.40;;;;;;;13.42;85.49;96686.29;110286;1242;69103;-69
2023/10/22 02:27:55;;;;;;;10.20;3.80;;;;;;;13.52;84.39;96692.13;110252;1240;69143;-68
2023/10/22 02:30:28;;;;;;;7.20;3.90;;;;;;;13.64;83.80;96701.67;110320;1241;59693;-69
2023/10/22 02:32:58;;;;;;;;;;;;;;;13.73;83.85;96702.52;110183;1242;59685;-69
2023/10/22 02:35:30;;;;;;;7.20;2.90;;;;;;;13.78;83.98;96704.16;110253;1241;71434;-69
2023/10/22 02:38:07;;;;;;;10.50;3.80;;;;;;;13.81;83.80;96702.66;110282;1240;68909;-69
2023/10/22 02:40:42;;;;;;;6.90;3.30;;;;;;;13.84;83.26;96703.59;110249;1243;68366;-69
2023/10/22 02:43:18;;;;;;;6.50;3.10;;;;;;;13.86;83.11;96705.61;110143;1243;59695;-69
2023/10/22 02:45:54;;;;;;;7.90;3.30;;;;;;;13.87;84.12;96706.97;110290;1241;59705;-69
2023/10/22 02:48:27;;;;;;;7.20;3.50;;;;;;;13.89;82.66;96711.68;110240;1241;70683;-68
2023/10/22 02:51:04;;;;;;;5.10;2.90;;;;;;;13.95;82.67;96705.17;110268;1239;68550;-70
2023/10/22 02:53:36;;;;;;;7.60;3.60;;;;;;;14.01;82.08;96708.95;110263;1242;69131;-69
2023/10/22 02:56:09;;;;;;;9.10;3.50;;;;;;;14.11;81.35;96708.12;110275;1241;59809;-69
2023/10/22 02:58:40;;;;;;;10.60;4.10;;;;;;;14.21;80.47;96694.11;110253;1245;59716;-69
2023/10/22 03:01:16;;;;;;;9.10;3.60;;;;;;;14.35;79.75;96678.08;110198;1243;71433;-69
2023/10/22 03:03:47;;;;;;;8.10;3.90;;;;;;;14.51;78.33;96679.29;110244;1241;68438;-69
2023/10/22 03:06:18;;;;;;;5.70;3.60;;;;;;;14.65;78.12;96689.44;110274;1243;69317;-70
2023/10/22 03:08:53;;;;;;;7.00;3.10;;;;;;;14.78;76.99;96693.08;110271;1241;59696;-70
2023/10/22 03:11:24;;;;;;;8.70;3.60;;;;;;;14.87;76.77;96684.80;110310;1240;59744;-71
2023/10/22 03:13:56;;;;;;;10.80;4.10;;;;;;;14.97;76.26;96688.95;110217;1243;71330;-71
2023/10/22 03:16:27;;;;;;;9.90;4.20;;;;;;;15.09;75.69;96687.95;110247;1241;69286;-70
2023/10/22 03:18:57;;;;;;;;;;;;;;;15.21;75.04;96685.80;110374;1239;70008;-70
2023/10/22 03:21:28;;;;;;;8.80;3.60;;;;;;;15.27;74.49;96690.98;110281;1243;59728;-70
2023/10/22 03:24:03;;;;;;;6.60;3.40;;;;;;;15.30;74.26;96686.88;110274;1241;59692;-70
2023/10/22 03:26:37;;;;;;;8.00;3.60;;;;;;;15.31;74.26;96695.55;110423;1241;71367;-69
2023/10/22 03:29:09;;;;;;;8.00;3.40;;;;;;;15.29;74.74;96694.86;110234;1242;68561;-68
2023/10/22 03:31:39;;;;;;;11.00;3.90;;;;;;;15.24;74.29;96696.91;110292;1241;69962;-69
2023/10/22 03:34:11;;;;;;;10.50;3.80;;;;;;;15.22;75.49;96702.90;110163;1240;59673;-69
2023/10/22 03:36:42;;;;;;;10.80;3.80;;;;;;;15.18;74.23;96703.70;110266;1242;59748;-69
2023/10/22 03:39:13;;;;;;;6.50;3.10;;;;;;;15.22;74.03;96707.24;110260;1242;70700;-70
2023/10/22 03:41:49;;;;;;;9.80;3.50;;;;;;;15.27;73.46;96706.90;110244;1241;68466;-69
2023/10/22 03:44:20;;;;;;;9.60;4.10;;;;;;;15.37;72.64;96709.68;110252;1241;69326;-69
2023/10/22 03:46:52;;;;;;;10.00;4.20;;;;;;;15.50;72.26;96708.84;110250;1244;59720;-69
2023/10/22 03:49:22;;;;;;;8.00;3.70;;;;;;;15.65;70.68;96708.50;110285;1241;59691;-69
2023/10/22 03:51:52;;;;;;;12.20;3.80;;;;;;;15.80;70.35;96711.89;110291;1242;71462;-71
2023/10/22 03:54:23;;;;;;;8.20;3.60;;;;;;;15.96;68.87;96706.10;110108;1242;69048;-69
2023/10/22 03:56:53;;;;;;;14.60;4.30;;;;;;;16.12;67.56;96710.07;110312;1241;69294;-70
2023/10/22 03:59:25;;;;;;;9.80;3.70;;;;;;;16.31;66.55;96708.05;110230;1244;59707;-68
2023/10/22 04:01:56;;;;;;;12.30;4.30;;;;;;;16.41;66.58;96709.27;110261;1241;59674;-69
2023/10/22 04:04:26;;;;;;;9.50;4.30;;;;;;;16.50;65.53;96714.25;110223;1240;71423;-67
2023/10/22 04:06:55;;;;;;;;;;;;;;;16.57;64.80;96714.01;110268;1242;69193;-69
2023/10/22 04:09:26;;;;;;;10.70;3.80;;;;;;;16.61;64.84;96706.80;110244;1246;68414;-68
2023/10/22 04:11:56;;;;;;;10.70;4.80;;;;;;;16.63;64.30;96715.27;110259;1241;59722;-69
2023/10/22 04:14:28;;;;;;;7.90;4.00;;;;;;;16.68;63.20;96715.48;110233;1241;59635;-70
2023/10/22 04:16:59;;;;;;;11.10;4.20;;;;;;;16.77;62.08;96711.98;110226;1242;71588;-69
2023/10/22 04:19:30;;;;;;;10.70;3.90;;;;;;;16.92;61.11;96709.35;110271;1242;69931;-70
2023/10/22 04:22:01;;;;;;;9.50;4.20;;;;;;;17.07;60.79;96716.55;110279;1242;69352;-71
2023/10/22 04:24:30;;;;;;;12.90;4.00;;;;;;;17.15;60.76;96708.41;110384;1241;59690;-70
2023/10/22 04:27:00;;;;;;;7.70;3.60;;;;;;;17.18;60.77;96710.49;110309;1241;59678;-71
2023/10/22 04:29:32;;;;;;;8.80;4.00;;;;;;;17.19;61.13;96714.95;110260;1242;71561;-68
2023/10/22 04:32:02;;;;;;;7.90;4.80;;;;;;;17.20;60.77;96714.20;110225;1241;68460;-70
2023/10/22 04:34:33;;;;;;;6.60;3.40;;;;;;;17.19;60.77;96718.23;110407;1242;69566;-70
2023/10/22 04:37:04;;;;;;;6.10;3.10;;;;;;;17.16;60.23;96720.62;110363;1240;59719;-69
2023/10/22 04:39:34;;;;;;;8.40;3.40;;;;;;;17.15;60.71;96726.90;110260;1240;59750;-68
2023/10/22 04:42:05;;;;;;;10.20;3.60;;;;;;;17.14;61.30;96729.46;110298;1239;70666;-70
2023/10/22 04:44:35;;;;;;;9.10;3.70;;;;;;;17.15;60.33;96731.98;110336;1240;68504;-69
2023/10/22 04:47:04;;;;;;;7.00;3.40;;;;;;;17.18;60.64;96730.80;110191;1241;69086;-69
2023/10/22 04:49:34;;;;;;;10.60;4.20;;;;;;;17.15;60.07;96732.83;110236;1242;59718;-69
2023/10/22 04:52:09;;;;;;;5.70;2.90;;;;;;;17.09;60.55;96736.94;110285;1242;59683;-71
2023/10/22 04:54:38;;;;;;;7.70;3.10;;;;;;;17.00;60.53;96742.56;110213;1241;71381;-69
2023/10/22 04:57:08;;;;;;;8.30;3.10;;;;;;;16.97;60.56;96743.70;110268;1241;70242;-70
2023/10/22 04:59:38;;;;;;;9.80;3.50;;;;;;;16.95;60.67;96747.26;110357;1242;68723;-69
2023/10/22 05:02:07;;;;;;;7.70;3.70;;;;;;;16.96;60.77;96750.45;110270;1242;59753;-70
2023/10/22 05:04:36;;;;;;;7.10;3.40;;;;;;;16.97;60.10;96754.77;110228;1242;59731;-70
2023/10/22 05:07:07;;;;;;;6.20;3.10;;;;;;;16.98;60.70;96755.91;110173;1244;72330;-69
2023/10/22 05:09:37;;;;;;;7.30;3.30;;;;;;;16.96;60.44;96755.55;110314;1243;69679;-70
2023/10/22 05:12:07;;;;;;;;;;;;;;;16.97;60.81;96758.66;110259;1241;69330;-70
2023/10/22 05:14:37;;;;;;;7.80;3.00;;;;;;;16.99;60.28;96764.95;110404;1242;59746;-70
2023/10/22 05:17:07;;;;;;;;;;;;;;;17.02;60.39;96768.80;110431;1241;59634;-70
2023/10/22 05:19:36;;;;;;;7.30;3.10;;;;;;;17.10;59.67;96768.42;110364;1242;71260;-70
2023/10/22 05:22:10;;;;;;;5.40;3.70;;;;;;;17.19;59.56;96770.69;110271;1248;69859;-69
2023/10/22 05:24:40;;;;;;;5.50;3.10;;;;;;;17.28;59.76;96768.27;110286;1241;69968;-70
2023/10/22 05:27:12;;;;;;;5.80;3.30;;;;;;;17.39;59.73;96770.02;110290;1242;59663;-71
2023/10/22 05:29:43;;;;;;;6.10;3.20;;;;;;;17.49;59.26;96776.48;110383;1241;59663;-69
2023/10/22 05:32:16;;;;;;;7.40;3.40;;;;;;;17.54;58.96;96783.63;110392;1242;71756;-69
2023/10/22 05:34:46;;;;;;;6.70;3.20;;;;;;;17.54;59.56;96786.88;110297;1241;69251;-71
2023/10/22 05:37:17;;;;;;;6.40;3.60;;;;;;;17.51;59.57;96789.45;110364;1241;69687;-71
2023/10/22 05:39:49;;;;;;;8.10;3.20;;;;;;;17.48;59.58;96793.67;110291;1242;59693;-69
2023/10/22 05:42:18;;;;;;;;;;;;;;;17.48;60.19;96801.45;110297;1239;59683;-70
2023/10/22 05:44:48;;;;;;;4.70;2.30;;;;;;;17.45;60.25;96806.91;110414;1241;71347;-68
2023/10/22 05:47:20;;;;;;;10.90;4.10;;;;;;;17.43;59.63;96810.39;110219;1241;69259;-69
2023/10/22 05:49:50;;;;;;;;;;;;;;;17.44;60.64;96816.30;110250;1242;68717;-70
2023/10/22 05:52:19;;;;;;;7.60;3.40;;;;;;;17.42;61.77;96821.35;110243;1241;60156;-69
2023/10/22 05:54:51;;;;;;;4.20;3.00;;;;;;;17.39;61.19;96825.16;110261;1242;59702;-69
2023/10/22 05:57:23;;;;;;;4.90;2.70;;;;;;;17.37;60.92;96832.91;110248;1242;71365;-68
2023/10/22 05:59:52;;;;;;;4.90;2.70;;;;;;;17.39;60.77;96831.70;110294;1240;68648;-70
2023/10/22 06:02:21;;;;;;;;;;;;;;;17.40;60.90;96829.74;110215;1241;69305;-69
2023/10/22 06:04:51;;;;;;;8.20;3.20;;;;;;;17.42;61.04;96835.73;110297;1241;59741;-70
2023/10/22 06:07:20;;;;;;;4.60;2.70;;;;;;;17.44;61.63;96838.93;110269;1240;59682;-68
2023/10/22 06:09:50;;;;;;;6.80;3.10;;;;;;;17.45;61.84;96845.82;110271;1241;71990;-69
2023/10/22 06:12:19;;;;;;;5.00;2.90;;;;;;;17.46;61.68;96853.48;110306;1241;69235;-69
2023/10/22 06:14:48;;;;;;;4.20;2.60;;;;;;;17.49;62.25;96853.23;110361;1241;69241;-71
2023/10/22 06:17:17;;;;;;;4.20;2.80;;;;;;;17.50;63.52;96853.14;110391;1241;59696;-71
2023/10/22 06:19:47;;;;;;;8.00;3.60;;;;;;;17.46;68.43;96854.38;110308;1241;59686;-70
2023/10/22 06:22:16;;;;;;;8.30;3.70;;;;;;;17.33;67.42;96860.47;110303;1241;70545;-70
2023/10/22 06:24:46;;;;;;;8.10;4.00;;;;;;;17.16;66.99;96868.80;110602;1240;69405;-69
2023/10/22 06:27:18;;;;;;;7.30;3.40;;;;;;;17.01;66.66;96866.42;110425;1242;69366;-71
2023/10/22 06:29:48;;;;;;;5.20;3.60;;;;;;;16.97;66.41;96865.80;110256;1242;59755;-71
2023/10/22 06:32:17;;;;;;;6.30;3.30;;;;;;;16.97;68.32;96866.20;110469;1241;59678;-69
2023/10/22 06:34:47;;;;;;;6.90;3.10;;;;;;;16.97;69.94;96871.42;110312;1243;71285;-71
2023/10/22 06:37:16;;;;;;;7.10;3.70;;;;;;;17.01;68.03;96878.39;110400;1241;69801;-70
2023/10/22 06:39:45;;;;;;;7.00;4.00;;;;;;;17.08;67.37;96879.44;110388;1242;68503;-70
2023/10/22 06:42:13;;;;;;;6.20;3.20;;;;;;;17.17;67.84;96883.03;110324;1244;60069;-71
2023/10/22 06:44:43;;;;;;;5.30;3.20;;;;;;;17.26;68.11;96887.15;110391;1243;59675;-71
2023/10/22 06:47:12;;;;;;;7.70;3.90;;;;;;;17.33;66.29;96888.30;110426;1241;72494;-71
2023/10/22 06:49:41;;;;;;;12.00;4.80;;;;;;;17.38;65.31;96891.86;110372;1241;69935;-70
2023/10/22 06:52:10;;;;;;;7.90;4.80;;;;;;;17.38;65.60;96890.81;110237;1242;69914;-71
2023/10/22 06:54:39;;;;;;;12.70;5.00;;;;;;;17.40;64.98;96892.72;110256;1242;60180;-71
2023/10/22 06:57:08;;;;;;;8.40;4.10;;;;;;;17.47;64.52;96891.33;110255;1242;59679;-69
2023/10/22 06:59:37;;;;;;;6.70;3.70;;;;;;;17.61;64.35;96895.64;110251;1242;70649;-70
2023/10/22 07:02:07;;;;;;;5.70;3.70;;;;;;;17.75;65.30;96900.67;110230;1239;69208;-70
2023/10/22 07:04:36;;;;;;;6.20;3.80;;;;;;;17.89;68.18;96900.70;110118;1246;69119;-69
2023/10/22 07:07:06;;;;;;;;;;;;;;;18.15;66.25;96897.30;110239;1242;59721;-71
2023/10/22 07:09:35;;;;;;;6.40;3.20;;;;;;;18.57;64.34;96902.56;110245;1242;59682;-69
2023/10/22 07:12:05;;;;;;;8.80;3.80;;;;;;;19.06;62.76;96899.91;110228;1241;71967;-71
2023/10/22 07:14:34;;;;;;;7.40;3.60;;;;;;;19.49;63.74;96903.02;110404;1242;69870;-69
2023/10/22 07:17:04;;;;;;;7.80;4.00;;;;;;;19.86;61.66;96901.33;110229;1241;69264;-70
2023/10/22 07:19:34;;;;;;;8.90;4.00;;;;;;;20.25;60.57;96903.38;110253;1242;59730;-69
2023/10/22 07:22:03;;;;;;;10.30;4.90;;;;;;;20.48;57.03;96903.41;110225;1241;59692;-69
2023/10/22 07:24:33;;;;;;;;;;;;;;;20.54;52.81;96908.88;110289;1242;70829;-69
2023/10/22 07:27:03;;;;;;;5.70;4.00;;;;;;;20.72;54.13;96907.97;110228;1242;68300;-69
2023/10/22 07:29:32;;;;;;;6.90;4.60;;;;;;;20.81;52.74;96906.25;110300;1242;69269;-69
2023/10/22 07:32:02;;;;;;;10.80;4.30;;;;;;;20.95;53.89;96902.59;110286;1241;59740;-69
2023/10/22 07:34:31;;;;;;;9.20;4.50;;;;;;;20.98;52.99;96898.29;110402;1241;59727;-70
2023/10/22 07:37:00;;;;;;;8.50;3.90;;;;;;;21.01;52.13;96905.05;110232;1239;71372;-69
2023/10/22 07:39:29;;;;;;;8.50;4.00;;;;;;;20.99;52.48;96906.75;110246;1240;70164;-68
2023/10/22 07:41:59;;;;;;;8.20;4.30;;;;;;;20.99;50.74;96910.83;110248;1242;68339;-69
2023/10/22 07:44:28;;;;;;;12.30;3.90;;;;;;;20.89;51.03;96916.45;110277;1245;59734;-68
2023/10/22 07:46:58;;;;;;;4.90;3.50;;;;;;;20.88;51.21;96918.16;110213;1242;59672;-68
2023/10/22 07:49:27;;;;;;;6.30;3.40;;;;;;;20.88;51.56;96914.16;110278;1241;71957;-69
2023/10/22 07:51:56;;;;;;;9.80;3.60;;;;;;;20.89;51.66;96912.61;110256;1241;69250;-68
2023/10/22 07:54:25;;;;;;;7.30;4.10;;;;;;;20.95;50.00;96921.60;110241;1240;69855;-70
2023/10/22 07:56:54;;;;;;;5.70;2.80;;;;;;;20.95;50.00;96916.44;110346;1242;59672;-66
2023/10/22 07:59:23;;;;;;;5.30;2.60;;;;;;;20.97;50.05;96917.04;110216;1249;59678;-67
2023/10/22 08:01:52;;;;;;;3.90;2.70;;;;;;;21.15;49.50;96915.16;110256;1241;71485;-70
2023/10/22 08:04:23;;;;;;;6.30;2.90;;;;;;;21.15;48.69;96922.74;110241;1242;68499;-70
2023/10/22 08:06:52;;;;;;;8.50;3.40;;;;;;;21.16;47.44;96930.06;110220;1242;69886;-69
2023/10/22 08:09:22;;;;;;;5.20;3.00;;;;;;;21.15;46.14;96925.70;110158;1241;59697;-70
2023/10/22 08:11:51;;;;;;;6.80;3.00;;;;;;;21.14;46.83;96924.52;110170;1244;59658;-69
2023/10/22 08:14:21;;;;;;;7.20;2.90;;;;;;;21.31;46.64;96923.11;110161;1243;71945;-71
2023/10/22 08:16:50;;;;;;;7.60;3.50;;;;;;;21.60;46.41;96924.80;110182;1242;68462;-70
2023/10/22 08:19:19;;;;;;;8.10;3.40;;;;;;;22.07;45.61;96923.13;110211;1241;69518;-69
2023/10/22 08:21:48;;;;;;;6.30;3.00;;;;;;;22.35;44.56;96926.33;110285;1242;59679;-70
2023/10/22 08:24:19;;;;;;;8.90;3.70;;;;;;;22.39;44.05;96933.23;110307;1242;59675;-67
2023/10/22 08:26:48;;;;;;;7.70;3.30;;;;;;;22.24;44.00;96938.94;110284;1242;70378;-70
2023/10/22 08:29:17;;;;;;;8.10;3.70;;;;;;;22.21;44.42;96941.11;110267;1242;69834;-69
2023/10/22 08:31:46;;;;;;;;;;;;;;;22.24;44.25;96938.05;110173;1249;69672;-70
2023/10/22 08:34:16;;;;;;;6.60;3.50;;;;;;;22.20;44.81;96935.70;110150;1242;59669;-70
2023/10/22 08:36:45;;;;;;;7.00;3.50;;;;;;;22.23;44.29;96941.92;110329;1242;59666;-70
2023/10/22 08:39:15;;;;;;;8.70;3.40;;;;;;;22.32;44.61;96947.33;110279;1240;69734;-69
2023/10/22 08:41:55;;;;;;;6.30;3.40;;;;;;;22.33;43.54;96945.24;110181;1245;69223;-70
2023/10/22 08:44:27;;;;;;;9.20;3.60;;;;;;;22.42;43.54;96950.62;110145;1240;68572;-68
2023/10/22 08:46:57;;;;;;;6.70;2.80;;;;;;;22.39;43.16;96951.67;110250;1241;59622;-68
2023/10/22 08:49:30;;;;;;;5.70;3.10;;;;;;;22.65;43.74;96952.98;110274;1241;59634;-69
2023/10/22 08:51:59;;;;;;;7.00;3.50;;;;;;;22.69;43.09;96953.41;110281;1241;70929;-70
2023/10/22 08:54:28;;;;;;;;;;;;;;;22.74;43.16;96949.90;110313;1241;68500;-68
2023/10/22 08:56:59;;;;;;;5.20;2.80;;;;;;;22.85;42.98;96949.50;110131;1241;68569;-70
2023/10/22 08:59:29;;;;;;;6.30;2.70;;;;;;;23.04;41.94;96951.45;110183;1242;59690;-69
2023/10/22 09:01:58;;;;;;;6.20;3.50;;;;;;;23.30;41.46;96950.52;110221;1247;59649;-70
2023/10/22 09:04:32;;;;;;;6.40;3.50;;;;;;;23.66;41.29;96955.39;110249;1241;71374;-69
2023/10/22 09:07:01;;;;;;;6.80;3.00;;;;;;;24.10;40.90;96950.27;110297;1242;69108;-69
2023/10/22 09:09:33;;;;;;;7.10;3.20;;;;;;;24.64;39.71;96944.17;110270;1241;69154;-69
2023/10/22 09:12:04;;;;;;;7.90;3.30;;;;;;;25.00;38.20;96943.63;110291;1241;59736;-69
2023/10/22 09:14:33;;;;;;;7.10;3.40;;;;;;;25.76;37.59;96944.14;110428;1241;59744;-69
2023/10/22 09:17:18;;;;;;;7.40;3.30;;;;;;;26.26;36.64;96937.52;110118;1241;71560;-70
2023/10/22 09:19:48;;;;;;;6.40;3.10;;;;;;;26.69;35.51;96940.40;109652;1240;634330;-70
2023/10/22 09:22:22;;;;;;;7.80;3.60;;;;;;;26.54;35.09;96936.84;110187;1241;69213;-72
2023/10/22 09:24:57;;;;;;;9.80;4.30;;;;;;;26.63;34.82;96932.69;110330;1241;59632;-69
2023/10/22 09:27:28;;;;;;;8.30;3.80;;;;;;;26.51;34.66;96938.34;110387;1243;59709;-70
2023/10/22 09:30:00;;;;;;;7.70;2.60;;;;;;;26.05;34.68;96934.50;110149;1240;71978;-69
2023/10/22 09:32:30;;;;;;;6.40;2.20;;;;;;;26.28;34.86;96933.52;110141;1242;68483;-69
2023/10/22 09:35:14;;;;;;;7.00;2.60;;;;;;;26.66;34.17;96936.62;110098;1246;69325;-71
2023/10/22 09:37:54;;;;;;;5.00;1.90;;;;;;;26.09;35.30;96929.71;110157;1241;59674;-70
2023/10/22 09:40:23;;;;;;;7.50;2.30;;;;;;;26.17;35.51;96926.31;110275;1240;59690;-69
2023/10/22 09:42:54;;;;;;;6.20;1.80;;;;;;;26.55;35.28;96925.13;110294;1241;71403;-71
2023/10/22 09:45:23;;;;;;;7.70;1.50;;;;;;;26.90;34.26;96922.12;110371;1242;69591;-71
2023/10/22 09:47:56;;;;;;;5.80;1.60;;;;;;;26.83;34.59;96915.43;110249;1242;68329;-70
2023/10/22 09:50:48;;;;;;;5.70;2.60;;;;;;;27.25;34.02;96905.42;110296;1243;59742;-70
2023/10/22 09:53:17;;;;;;;6.10;2.10;;;;;;;27.63;33.71;96905.80;110291;1242;59993;-70
2023/10/22 09:55:49;;;;;;;4.90;2.10;;;;;;;27.26;33.56;96900.66;110239;1242;70937;-72
2023/10/22 09:58:21;;;;;;;6.20;1.70;;;;;;;27.24;33.41;96901.82;110178;1241;69266;-71
2023/10/22 10:00:51;;;;;;;4.20;1.50;;;;;;;26.78;34.18;96902.30;110158;1241;69303;-71
2023/10/22 10:03:21;;;;;;;4.60;1.40;;;;;;;26.99;34.25;96903.75;110347;1241;59689;-71
2023/10/22 10:05:51;;;;;;;5.50;1.30;;;;;;;27.84;33.14;96906.48;110303;1242;59685;-70
2023/10/22 10:08:21;;;;;;;4.30;1.60;;;;;;;28.20;32.49;96895.49;110347;1242;71403;-70
2023/10/22 10:10:51;;;;;;;6.20;1.50;;;;;;;28.12;32.24;96894.61;110254;1241;69073;-71
2023/10/22 10:13:20;;;;;;;3.80;1.20;;;;;;;28.38;32.43;96890.30;110152;1241;68987;-70
2023/10/22 10:16:18;;;;;;;;;;;;;;;28.98;31.72;96885.48;110214;1241;59735;-71
2023/10/22 10:19:08;;;;;;;4.60;1.50;;;;;;;29.35;31.36;96884.73;110053;1242;59711;-70
2023/10/22 10:21:40;;;;;;;5.50;1.50;;;;;;;29.72;30.40;96878.63;110261;1242;71966;-71
2023/10/22 10:24:26;;;;;;;4.70;1.70;;;;;;;29.65;30.60;96879.13;110348;1241;69225;-71
2023/10/22 10:26:55;;;;;;;4.80;1.80;;;;;;;29.35;30.76;96876.34;110280;1243;68745;-70
2023/10/22 10:29:32;;;;;;;5.10;1.20;;;;;;;28.62;31.08;96884.25;110297;1241;59741;-70
2023/10/22 10:32:13;;;;;;;6.50;1.50;;;;;;;28.93;30.72;96878.63;110322;1241;59686;-72
2023/10/22 10:34:48;;;;;;;4.30;1.40;;;;;;;29.54;30.25;96873.27;110266;1241;70459;-71
2023/10/22 10:37:18;;;;;;;5.10;1.40;;;;;;;29.96;30.03;96874.02;110225;1241;68850;-70
2023/10/22 10:39:51;;;;;;;4.10;1.40;;;;;;;29.62;29.63;96873.30;110302;1242;69250;-70
2023/10/22 10:42:29;;;;;;;3.20;1.40;;;;;;;28.67;30.70;96874.60;110221;1241;59668;-70
2023/10/22 10:44:59;;;;;;;5.70;1.50;;;;;;;29.70;29.89;96867.04;110238;1240;59680;-69
2023/10/22 10:47:39;;;;;;;7.00;1.70;;;;;;;30.98;28.54;96876.96;110124;1242;71967;-69
2023/10/22 10:50:18;;;;;;;5.40;1.60;;;;;;;31.12;27.92;96872.96;110175;1242;69121;-70
2023/10/22 10:52:47;;;;;;;3.80;1.20;;;;;;;30.61;28.59;96869.70;110312;1248;69272;-71
2023/10/22 10:55:16;;;;;;;4.70;1.30;;;;;;;30.65;28.85;96867.10;110252;1243;59745;-71
2023/10/22 10:57:53;;;;;;;7.70;1.40;;;;;;;31.16;27.91;96869.75;110392;1242;59599;-70
2023/10/22 11:00:32;;;;;;;4.80;1.40;;;;;;;31.19;27.96;96870.48;110364;1241;72335;-71
2023/10/22 11:03:04;;;;;;;3.20;1.40;;;;;;;30.94;28.23;96868.52;110252;1249;69344;-71
2023/10/22 11:05:39;;;;;;;4.60;1.50;;;;;;;31.04;27.95;96870.77;110199;1243;69883;-70
2023/10/22 11:08:23;;;;;;;4.50;1.60;;;;;;;31.27;27.49;96867.23;110233;1240;59700;-70
2023/10/22 11:10:53;;;;;;;8.10;1.40;;;;;;;30.86;27.35;96873.15;110249;1242;59689;-71
2023/10/22 11:13:27;;;;;;;3.80;1.30;;;;;;;29.35;29.18;96874.77;110346;1241;71347;-70
2023/10/22 11:16:03;;;;;;;4.10;1.10;;;;;;;28.56;30.34;96875.79;110272;1241;68484;-70
2023/10/22 11:18:32;;;;;;;3.90;1.30;;;;;;;27.39;32.29;96884.78;110395;1241;69247;-71
2023/10/22 11:21:01;;;;;;;5.30;1.20;;;;;;;27.17;32.49;96880.76;110335;1241;60136;-69
2023/10/22 11:23:30;;;;;;;3.50;1.10;;;;;;;27.40;32.64;96883.36;110285;1243;59669;-70
2023/10/22 11:25:59;;;;;;;;;;;;;;;28.41;31.57;96883.34;110539;1240;71380;-71
2023/10/22 11:28:28;;;;;;;;;;;;;;;29.30;30.59;96880.31;110255;1243;69825;-70
2023/10/22 11:30:57;;;;;;;3.80;1.40;;;;;;;30.01;29.29;96873.70;110309;1242;69106;-69
2023/10/22 11:33:29;;;;;;;3.80;1.40;;;;;;;29.77;28.99;96878.30;110132;1242;59728;-70
2023/10/22 11:36:00;;;;;;;4.40;1.30;;;;;;;30.03;28.94;96872.77;110298;1241;59800;-69
2023/10/22 11:38:29;;;;;;;6.40;1.40;;;;;;;30.83;28.30;96876.23;110242;1242;70498;-69
2023/10/22 11:41:03;;;;;;;4.40;1.30;;;;;;;30.31;28.36;96875.24;110140;1242;68599;-71
2023/10/22 11:43:34;;;;;;;4.80;1.50;;;;;;;30.80;28.23;96871.92;110123;1244;68524;-70
2023/10/22 11:46:05;;;;;;;6.20;1.50;;;;;;;31.09;28.01;96866.40;110169;1242;59725;-70
2023/10/22 11:48:37;;;;;;;5.50;1.30;;;;;;;31.37;27.01;96857.52;110142;1240;59740;-70